sensor_id;sensor_type;location;lat;lon;timestamp;P1;durP1;ratioP1;P2;durP2;ratioP2
12445;SDS011;6287;50.984;7.022;2023-03-20T00:00:49;8.63;;;6.07;;
12445;SDS011;6287;50.984;7.022;2023-03-20T00:03:15;12.67;;;6.83;;
12445;SDS011;6287;50.984;7.022;2023-03-20T00:05:41;13.50;;;7.40;;
12445;SDS011;6287;50.984;7.022;2023-03-20T00:08:09;9.30;;;5.57;;
12445;SDS011;6287;50.984;7.022;2023-03-20T00:10:44;12.40;;;6.47;;
12445;SDS011;6287;50.984;7.022;2023-03-20T00:13:14;10.97;;;6.40;;
12445;SDS011;6287;50.984;7.022;2023-03-20T00:15:47;13.20;;;6.73;;
12445;SDS011;6287;50.984;7.022;2023-03-20T00:18:16;10.40;;;6.23;;
12445;SDS011;6287;50.984;7.022;2023-03-20T00:20:49;10.70;;;6.13;;
12445;SDS011;6287;50.984;7.022;2023-03-20T00:23:18;11.60;;;6.67;;
12445;SDS011;6287;50.984;7.022;2023-03-20T00:25:44;10.17;;;6.00;;
12445;SDS011;6287;50.984;7.022;2023-03-20T00:28:34;12.97;;;6.83;;
12445;SDS011;6287;50.984;7.022;2023-03-20T00:31:03;12.97;;;6.67;;
12445;SDS011;6287;50.984;7.022;2023-03-20T00:33:40;8.93;;;6.33;;
12445;SDS011;6287;50.984;7.022;2023-03-20T00:36:06;11.07;;;6.13;;
12445;SDS011;6287;50.984;7.022;2023-03-20T00:38:34;10.70;;;6.03;;
12445;SDS011;6287;50.984;7.022;2023-03-20T00:41:02;12.93;;;7.07;;
12445;SDS011;6287;50.984;7.022;2023-03-20T00:43:36;11.30;;;6.60;;
12445;SDS011;6287;50.984;7.022;2023-03-20T00:46:06;10.73;;;6.37;;
12445;SDS011;6287;50.984;7.022;2023-03-20T00:48:36;12.13;;;6.63;;
12445;SDS011;6287;50.984;7.022;2023-03-20T00:51:08;13.17;;;6.47;;
12445;SDS011;6287;50.984;7.022;2023-03-20T00:53:34;11.20;;;6.87;;
12445;SDS011;6287;50.984;7.022;2023-03-20T00:56:01;15.20;;;7.43;;
12445;SDS011;6287;50.984;7.022;2023-03-20T00:58:30;15.50;;;9.50;;
12445;SDS011;6287;50.984;7.022;2023-03-20T01:00:55;16.43;;;8.30;;
12445;SDS011;6287;50.984;7.022;2023-03-20T01:03:23;16.20;;;7.27;;
12445;SDS011;6287;50.984;7.022;2023-03-20T01:05:50;12.33;;;7.13;;
12445;SDS011;6287;50.984;7.022;2023-03-20T01:08:20;13.60;;;7.90;;
12445;SDS011;6287;50.984;7.022;2023-03-20T01:10:48;15.53;;;8.00;;
12445;SDS011;6287;50.984;7.022;2023-03-20T01:15:45;12.30;;;7.50;;
12445;SDS011;6287;50.984;7.022;2023-03-20T01:18:12;12.77;;;7.23;;
12445;SDS011;6287;50.984;7.022;2023-03-20T01:20:42;12.63;;;6.83;;
12445;SDS011;6287;50.984;7.022;2023-03-20T01:23:08;12.17;;;7.37;;
12445;SDS011;6287;50.984;7.022;2023-03-20T01:25:37;13.83;;;7.23;;
12445;SDS011;6287;50.984;7.022;2023-03-20T01:28:10;12.97;;;7.33;;
12445;SDS011;6287;50.984;7.022;2023-03-20T01:30:51;13.63;;;7.83;;
12445;SDS011;6287;50.984;7.022;2023-03-20T01:33:20;12.03;;;7.00;;
12445;SDS011;6287;50.984;7.022;2023-03-20T01:35:49;13.63;;;7.93;;
12445;SDS011;6287;50.984;7.022;2023-03-20T01:38:19;14.47;;;7.63;;
12445;SDS011;6287;50.984;7.022;2023-03-20T01:43:18;11.37;;;6.87;;
12445;SDS011;6287;50.984;7.022;2023-03-20T01:45:52;13.63;;;7.27;;
12445;SDS011;6287;50.984;7.022;2023-03-20T01:51:25;11.90;;;7.10;;
12445;SDS011;6287;50.984;7.022;2023-03-20T01:54:03;15.13;;;7.13;;
12445;SDS011;6287;50.984;7.022;2023-03-20T01:56:34;12.70;;;6.80;;
12445;SDS011;6287;50.984;7.022;2023-03-20T01:59:23;11.57;;;6.70;;
12445;SDS011;6287;50.984;7.022;2023-03-20T02:01:53;11.43;;;7.00;;
12445;SDS011;6287;50.984;7.022;2023-03-20T02:04:23;12.27;;;7.03;;
12445;SDS011;6287;50.984;7.022;2023-03-20T02:06:53;12.27;;;7.03;;
12445;SDS011;6287;50.984;7.022;2023-03-20T02:09:19;10.43;;;6.50;;
12445;SDS011;6287;50.984;7.022;2023-03-20T02:11:48;12.63;;;6.67;;
12445;SDS011;6287;50.984;7.022;2023-03-20T02:14:14;13.57;;;7.03;;
12445;SDS011;6287;50.984;7.022;2023-03-20T02:16:42;11.60;;;7.13;;
12445;SDS011;6287;50.984;7.022;2023-03-20T02:19:19;14.67;;;7.13;;
12445;SDS011;6287;50.984;7.022;2023-03-20T02:38:53;14.07;;;7.70;;
12445;SDS011;6287;50.984;7.022;2023-03-20T02:41:38;13.23;;;7.50;;
12445;SDS011;6287;50.984;7.022;2023-03-20T02:52:11;14.03;;;7.77;;
12445;SDS011;6287;50.984;7.022;2023-03-20T02:57:30;13.90;;;7.30;;
12445;SDS011;6287;50.984;7.022;2023-03-20T03:00:11;13.90;;;7.50;;
12445;SDS011;6287;50.984;7.022;2023-03-20T03:02:51;12.47;;;7.60;;
12445;SDS011;6287;50.984;7.022;2023-03-20T03:05:37;15.27;;;7.67;;
12445;SDS011;6287;50.984;7.022;2023-03-20T03:08:08;13.67;;;7.63;;
12445;SDS011;6287;50.984;7.022;2023-03-20T03:10:40;12.13;;;7.60;;
12445;SDS011;6287;50.984;7.022;2023-03-20T03:13:14;13.87;;;7.87;;
12445;SDS011;6287;50.984;7.022;2023-03-20T03:15:46;15.00;;;7.93;;
12445;SDS011;6287;50.984;7.022;2023-03-20T03:18:19;14.17;;;7.73;;
12445;SDS011;6287;50.984;7.022;2023-03-20T03:20:51;16.13;;;7.97;;
12445;SDS011;6287;50.984;7.022;2023-03-20T03:23:29;16.03;;;7.80;;
12445;SDS011;6287;50.984;7.022;2023-03-20T03:26:05;13.27;;;7.83;;
12445;SDS011;6287;50.984;7.022;2023-03-20T03:28:33;15.27;;;7.77;;
12445;SDS011;6287;50.984;7.022;2023-03-20T03:31:08;13.97;;;7.77;;
12445;SDS011;6287;50.984;7.022;2023-03-20T03:33:42;13.93;;;7.80;;
12445;SDS011;6287;50.984;7.022;2023-03-20T03:41:42;16.07;;;7.70;;
12445;SDS011;6287;50.984;7.022;2023-03-20T03:44:13;16.90;;;7.87;;
12445;SDS011;6287;50.984;7.022;2023-03-20T03:46:51;14.27;;;7.90;;
12445;SDS011;6287;50.984;7.022;2023-03-20T03:49:41;16.73;;;7.50;;
12445;SDS011;6287;50.984;7.022;2023-03-20T03:52:17;13.63;;;7.90;;
12445;SDS011;6287;50.984;7.022;2023-03-20T03:54:50;13.43;;;7.53;;
12445;SDS011;6287;50.984;7.022;2023-03-20T03:57:25;13.90;;;7.73;;
12445;SDS011;6287;50.984;7.022;2023-03-20T03:59:55;15.00;;;7.87;;
12445;SDS011;6287;50.984;7.022;2023-03-20T04:02:25;14.03;;;7.10;;
12445;SDS011;6287;50.984;7.022;2023-03-20T04:04:51;14.87;;;7.73;;
12445;SDS011;6287;50.984;7.022;2023-03-20T04:07:23;14.20;;;7.70;;
12445;SDS011;6287;50.984;7.022;2023-03-20T04:09:51;16.97;;;8.43;;
12445;SDS011;6287;50.984;7.022;2023-03-20T04:12:41;17.77;;;8.93;;
12445;SDS011;6287;50.984;7.022;2023-03-20T04:15:06;14.00;;;7.67;;
12445;SDS011;6287;50.984;7.022;2023-03-20T04:17:32;17.03;;;8.73;;
12445;SDS011;6287;50.984;7.022;2023-03-20T04:19:58;14.30;;;7.73;;
12445;SDS011;6287;50.984;7.022;2023-03-20T04:22:24;14.30;;;8.23;;
12445;SDS011;6287;50.984;7.022;2023-03-20T04:24:55;13.43;;;8.13;;
12445;SDS011;6287;50.984;7.022;2023-03-20T04:27:20;14.47;;;8.03;;
12445;SDS011;6287;50.984;7.022;2023-03-20T04:29:49;16.47;;;7.93;;
12445;SDS011;6287;50.984;7.022;2023-03-20T04:32:14;14.33;;;8.00;;
12445;SDS011;6287;50.984;7.022;2023-03-20T04:34:45;12.10;;;7.20;;
12445;SDS011;6287;50.984;7.022;2023-03-20T04:37:13;11.90;;;7.23;;
12445;SDS011;6287;50.984;7.022;2023-03-20T04:39:39;13.23;;;6.93;;
12445;SDS011;6287;50.984;7.022;2023-03-20T04:42:07;12.60;;;6.90;;
12445;SDS011;6287;50.984;7.022;2023-03-20T04:44:33;11.37;;;7.10;;
12445;SDS011;6287;50.984;7.022;2023-03-20T04:46:59;13.70;;;6.60;;
12445;SDS011;6287;50.984;7.022;2023-03-20T04:49:27;12.17;;;6.80;;
12445;SDS011;6287;50.984;7.022;2023-03-20T04:51:53;13.67;;;7.10;;
12445;SDS011;6287;50.984;7.022;2023-03-20T04:54:21;12.80;;;6.60;;
12445;SDS011;6287;50.984;7.022;2023-03-20T04:56:47;12.07;;;6.67;;
12445;SDS011;6287;50.984;7.022;2023-03-20T04:59:12;11.37;;;6.97;;
12445;SDS011;6287;50.984;7.022;2023-03-20T05:01:41;14.37;;;7.03;;
12445;SDS011;6287;50.984;7.022;2023-03-20T05:04:06;13.93;;;7.53;;
12445;SDS011;6287;50.984;7.022;2023-03-20T05:06:36;15.70;;;7.33;;
12445;SDS011;6287;50.984;7.022;2023-03-20T05:09:02;13.77;;;6.40;;
12445;SDS011;6287;50.984;7.022;2023-03-20T05:11:28;12.80;;;6.83;;
12445;SDS011;6287;50.984;7.022;2023-03-20T05:13:54;11.43;;;6.33;;
12445;SDS011;6287;50.984;7.022;2023-03-20T05:16:22;13.40;;;6.97;;
12445;SDS011;6287;50.984;7.022;2023-03-20T05:18:48;13.03;;;7.13;;
12445;SDS011;6287;50.984;7.022;2023-03-20T05:21:14;12.47;;;6.63;;
12445;SDS011;6287;50.984;7.022;2023-03-20T05:23:39;12.97;;;6.77;;
12445;SDS011;6287;50.984;7.022;2023-03-20T05:26:10;13.30;;;6.10;;
12445;SDS011;6287;50.984;7.022;2023-03-20T05:28:38;14.67;;;6.70;;
12445;SDS011;6287;50.984;7.022;2023-03-20T05:31:08;10.17;;;5.87;;
12445;SDS011;6287;50.984;7.022;2023-03-20T05:33:36;12.70;;;6.73;;
12445;SDS011;6287;50.984;7.022;2023-03-20T05:36:06;10.67;;;5.87;;
12445;SDS011;6287;50.984;7.022;2023-03-20T05:38:32;11.10;;;6.83;;
12445;SDS011;6287;50.984;7.022;2023-03-20T05:40:59;9.27;;;5.53;;
12445;SDS011;6287;50.984;7.022;2023-03-20T05:43:25;11.50;;;5.30;;
12445;SDS011;6287;50.984;7.022;2023-03-20T05:45:54;9.57;;;5.20;;
12445;SDS011;6287;50.984;7.022;2023-03-20T05:48:22;10.90;;;5.67;;
12445;SDS011;6287;50.984;7.022;2023-03-20T05:50:48;11.83;;;5.90;;
12445;SDS011;6287;50.984;7.022;2023-03-20T05:53:14;11.07;;;6.33;;
12445;SDS011;6287;50.984;7.022;2023-03-20T05:55:42;9.30;;;5.33;;
12445;SDS011;6287;50.984;7.022;2023-03-20T05:58:09;9.67;;;5.40;;
12445;SDS011;6287;50.984;7.022;2023-03-20T06:00:40;10.80;;;5.60;;
12445;SDS011;6287;50.984;7.022;2023-03-20T06:03:05;11.50;;;5.77;;
12445;SDS011;6287;50.984;7.022;2023-03-20T06:05:36;9.03;;;5.43;;
12445;SDS011;6287;50.984;7.022;2023-03-20T06:08:01;8.37;;;5.50;;
12445;SDS011;6287;50.984;7.022;2023-03-20T06:10:30;12.10;;;6.00;;
12445;SDS011;6287;50.984;7.022;2023-03-20T06:12:58;9.87;;;5.67;;
12445;SDS011;6287;50.984;7.022;2023-03-20T06:15:27;9.97;;;5.13;;
12445;SDS011;6287;50.984;7.022;2023-03-20T06:17:53;9.97;;;5.47;;
12445;SDS011;6287;50.984;7.022;2023-03-20T06:20:22;10.87;;;5.50;;
12445;SDS011;6287;50.984;7.022;2023-03-20T06:22:51;9.53;;;5.47;;
12445;SDS011;6287;50.984;7.022;2023-03-20T06:25:19;9.57;;;5.97;;
12445;SDS011;6287;50.984;7.022;2023-03-20T06:27:46;12.63;;;6.03;;
12445;SDS011;6287;50.984;7.022;2023-03-20T06:30:15;10.27;;;5.57;;
12445;SDS011;6287;50.984;7.022;2023-03-20T06:32:48;12.37;;;5.83;;
12445;SDS011;6287;50.984;7.022;2023-03-20T06:35:16;15.43;;;6.43;;
12445;SDS011;6287;50.984;7.022;2023-03-20T06:37:42;10.23;;;5.83;;
12445;SDS011;6287;50.984;7.022;2023-03-20T06:40:10;10.23;;;5.60;;
12445;SDS011;6287;50.984;7.022;2023-03-20T06:42:41;14.30;;;6.03;;
12445;SDS011;6287;50.984;7.022;2023-03-20T06:45:09;9.17;;;5.30;;
12445;SDS011;6287;50.984;7.022;2023-03-20T06:47:40;13.40;;;6.63;;
12445;SDS011;6287;50.984;7.022;2023-03-20T06:50:06;11.50;;;5.93;;
12445;SDS011;6287;50.984;7.022;2023-03-20T06:52:32;12.67;;;6.63;;
12445;SDS011;6287;50.984;7.022;2023-03-20T06:54:57;13.20;;;7.00;;
12445;SDS011;6287;50.984;7.022;2023-03-20T06:57:23;10.83;;;6.23;;
12445;SDS011;6287;50.984;7.022;2023-03-20T06:59:51;12.63;;;7.03;;
12445;SDS011;6287;50.984;7.022;2023-03-20T07:02:19;17.27;;;7.00;;
12445;SDS011;6287;50.984;7.022;2023-03-20T07:04:46;13.00;;;7.73;;
12445;SDS011;6287;50.984;7.022;2023-03-20T07:07:14;12.70;;;7.10;;
12445;SDS011;6287;50.984;7.022;2023-03-20T07:09:41;12.20;;;6.97;;
12445;SDS011;6287;50.984;7.022;2023-03-20T07:12:14;14.07;;;7.77;;
12445;SDS011;6287;50.984;7.022;2023-03-20T07:14:41;12.13;;;7.23;;
12445;SDS011;6287;50.984;7.022;2023-03-20T07:17:09;12.97;;;6.83;;
12445;SDS011;6287;50.984;7.022;2023-03-20T07:19:39;12.90;;;7.23;;
12445;SDS011;6287;50.984;7.022;2023-03-20T07:22:09;13.50;;;7.00;;
12445;SDS011;6287;50.984;7.022;2023-03-20T07:24:49;12.00;;;6.73;;
12445;SDS011;6287;50.984;7.022;2023-03-20T07:27:15;8.93;;;5.87;;
12445;SDS011;6287;50.984;7.022;2023-03-20T07:29:44;14.07;;;6.87;;
12445;SDS011;6287;50.984;7.022;2023-03-20T07:32:10;11.67;;;6.77;;
12445;SDS011;6287;50.984;7.022;2023-03-20T07:34:36;10.07;;;5.37;;
12445;SDS011;6287;50.984;7.022;2023-03-20T07:37:02;10.53;;;5.67;;
12445;SDS011;6287;50.984;7.022;2023-03-20T07:39:32;9.77;;;5.63;;
12445;SDS011;6287;50.984;7.022;2023-03-20T07:42:03;9.87;;;5.03;;
12445;SDS011;6287;50.984;7.022;2023-03-20T07:44:31;8.67;;;4.33;;
12445;SDS011;6287;50.984;7.022;2023-03-20T07:46:56;8.97;;;5.10;;
12445;SDS011;6287;50.984;7.022;2023-03-20T07:49:22;8.80;;;4.87;;
12445;SDS011;6287;50.984;7.022;2023-03-20T07:51:50;9.23;;;4.17;;
12445;SDS011;6287;50.984;7.022;2023-03-20T07:54:18;6.43;;;4.13;;
12445;SDS011;6287;50.984;7.022;2023-03-20T07:56:44;7.00;;;4.97;;
12445;SDS011;6287;50.984;7.022;2023-03-20T07:59:10;9.00;;;4.13;;
12445;SDS011;6287;50.984;7.022;2023-03-20T08:01:39;4.70;;;3.67;;
12445;SDS011;6287;50.984;7.022;2023-03-20T08:04:05;7.10;;;3.63;;
12445;SDS011;6287;50.984;7.022;2023-03-20T08:06:30;8.00;;;3.77;;
12445;SDS011;6287;50.984;7.022;2023-03-20T08:08:56;4.93;;;3.47;;
12445;SDS011;6287;50.984;7.022;2023-03-20T08:11:22;7.40;;;4.07;;
12445;SDS011;6287;50.984;7.022;2023-03-20T08:13:50;5.93;;;3.93;;
12445;SDS011;6287;50.984;7.022;2023-03-20T08:16:15;7.63;;;4.07;;
12445;SDS011;6287;50.984;7.022;2023-03-20T08:18:41;5.93;;;3.60;;
12445;SDS011;6287;50.984;7.022;2023-03-20T08:21:09;4.57;;;3.17;;
12445;SDS011;6287;50.984;7.022;2023-03-20T08:23:37;5.53;;;3.70;;
12445;SDS011;6287;50.984;7.022;2023-03-20T08:26:04;5.17;;;3.47;;
12445;SDS011;6287;50.984;7.022;2023-03-20T08:28:35;5.70;;;3.30;;
12445;SDS011;6287;50.984;7.022;2023-03-20T08:31:00;6.20;;;3.40;;
12445;SDS011;6287;50.984;7.022;2023-03-20T08:33:26;4.70;;;3.13;;
12445;SDS011;6287;50.984;7.022;2023-03-20T08:35:54;6.70;;;3.57;;
12445;SDS011;6287;50.984;7.022;2023-03-20T08:38:21;4.67;;;3.00;;
12445;SDS011;6287;50.984;7.022;2023-03-20T08:40:49;6.60;;;3.90;;
12445;SDS011;6287;50.984;7.022;2023-03-20T08:43:17;5.03;;;3.23;;
12445;SDS011;6287;50.984;7.022;2023-03-20T08:45:43;3.97;;;3.27;;
12445;SDS011;6287;50.984;7.022;2023-03-20T08:48:11;4.30;;;3.50;;
12445;SDS011;6287;50.984;7.022;2023-03-20T08:50:40;6.83;;;3.77;;
12445;SDS011;6287;50.984;7.022;2023-03-20T08:53:06;6.27;;;3.93;;
12445;SDS011;6287;50.984;7.022;2023-03-20T08:55:34;7.83;;;3.90;;
12445;SDS011;6287;50.984;7.022;2023-03-20T08:58:02;6.23;;;3.43;;
12445;SDS011;6287;50.984;7.022;2023-03-20T09:00:27;4.90;;;3.57;;
12445;SDS011;6287;50.984;7.022;2023-03-20T09:02:53;5.60;;;4.32;;
12445;SDS011;6287;50.984;7.022;2023-03-20T09:05:21;5.17;;;3.53;;
12445;SDS011;6287;50.984;7.022;2023-03-20T09:07:49;7.13;;;4.03;;
12445;SDS011;6287;50.984;7.022;2023-03-20T09:10:15;6.67;;;4.00;;
12445;SDS011;6287;50.984;7.022;2023-03-20T09:12:43;5.30;;;3.50;;
12445;SDS011;6287;50.984;7.022;2023-03-20T09:15:09;5.80;;;3.60;;
12445;SDS011;6287;50.984;7.022;2023-03-20T09:17:37;6.43;;;3.70;;
12445;SDS011;6287;50.984;7.022;2023-03-20T09:20:10;5.73;;;4.27;;
12445;SDS011;6287;50.984;7.022;2023-03-20T09:22:40;5.27;;;4.13;;
12445;SDS011;6287;50.984;7.022;2023-03-20T09:25:07;7.77;;;4.13;;
12445;SDS011;6287;50.984;7.022;2023-03-20T09:27:38;7.10;;;4.70;;
12445;SDS011;6287;50.984;7.022;2023-03-20T09:30:04;7.60;;;4.30;;
12445;SDS011;6287;50.984;7.022;2023-03-20T09:32:34;5.57;;;4.00;;
12445;SDS011;6287;50.984;7.022;2023-03-20T09:35:02;7.13;;;3.87;;
12445;SDS011;6287;50.984;7.022;2023-03-20T09:37:31;7.43;;;4.17;;
12445;SDS011;6287;50.984;7.022;2023-03-20T09:39:56;5.60;;;4.20;;
12445;SDS011;6287;50.984;7.022;2023-03-20T09:42:46;6.27;;;4.27;;
12445;SDS011;6287;50.984;7.022;2023-03-20T09:48:18;7.23;;;4.97;;
12445;SDS011;6287;50.984;7.022;2023-03-20T09:50:57;5.87;;;4.13;;
12445;SDS011;6287;50.984;7.022;2023-03-20T09:53:46;6.03;;;4.67;;
12445;SDS011;6287;50.984;7.022;2023-03-20T09:56:27;7.63;;;4.50;;
12445;SDS011;6287;50.984;7.022;2023-03-20T09:58:58;6.07;;;4.07;;
12445;SDS011;6287;50.984;7.022;2023-03-20T10:01:29;5.43;;;4.23;;
12445;SDS011;6287;50.984;7.022;2023-03-20T10:04:00;5.20;;;3.80;;
12445;SDS011;6287;50.984;7.022;2023-03-20T10:06:32;5.33;;;3.97;;
12445;SDS011;6287;50.984;7.022;2023-03-20T10:08:58;8.17;;;3.67;;
12445;SDS011;6287;50.984;7.022;2023-03-20T10:11:38;7.63;;;4.73;;
12445;SDS011;6287;50.984;7.022;2023-03-20T10:20:23;7.50;;;4.93;;
12445;SDS011;6287;50.984;7.022;2023-03-20T10:22:58;6.87;;;4.77;;
12445;SDS011;6287;50.984;7.022;2023-03-20T10:26:13;9.80;;;4.83;;
12445;SDS011;6287;50.984;7.022;2023-03-20T10:36:28;8.67;;;5.33;;
12445;SDS011;6287;50.984;7.022;2023-03-20T10:41:54;7.20;;;4.20;;
12445;SDS011;6287;50.984;7.022;2023-03-20T10:44:34;5.40;;;3.93;;
12445;SDS011;6287;50.984;7.022;2023-03-20T10:47:10;7.97;;;4.30;;
12445;SDS011;6287;50.984;7.022;2023-03-20T10:49:45;9.97;;;3.90;;
12445;SDS011;6287;50.984;7.022;2023-03-20T10:52:17;5.83;;;3.83;;
12445;SDS011;6287;50.984;7.022;2023-03-20T10:54:47;5.17;;;3.30;;
12445;SDS011;6287;50.984;7.022;2023-03-20T10:57:22;4.63;;;3.13;;
12445;SDS011;6287;50.984;7.022;2023-03-20T10:59:55;6.63;;;3.40;;
12445;SDS011;6287;50.984;7.022;2023-03-20T11:02:26;8.10;;;3.73;;
12445;SDS011;6287;50.984;7.022;2023-03-20T11:04:54;5.07;;;3.10;;
12445;SDS011;6287;50.984;7.022;2023-03-20T11:07:27;3.90;;;2.50;;
12445;SDS011;6287;50.984;7.022;2023-03-20T11:12:41;1.80;;;1.43;;
12445;SDS011;6287;50.984;7.022;2023-03-20T11:20:25;1.23;;;1.13;;
12445;SDS011;6287;50.984;7.022;2023-03-20T11:23:06;1.37;;;1.27;;
12445;SDS011;6287;50.984;7.022;2023-03-20T11:25:36;2.97;;;1.60;;
12445;SDS011;6287;50.984;7.022;2023-03-20T11:28:31;1.67;;;1.57;;
12445;SDS011;6287;50.984;7.022;2023-03-20T11:34:06;1.50;;;1.40;;
12445;SDS011;6287;50.984;7.022;2023-03-20T11:36:37;2.50;;;1.30;;
12445;SDS011;6287;50.984;7.022;2023-03-20T11:41:45;5.07;;;1.57;;
12445;SDS011;6287;50.984;7.022;2023-03-20T11:44:24;2.07;;;1.57;;
12445;SDS011;6287;50.984;7.022;2023-03-20T11:47:02;1.93;;;1.50;;
12445;SDS011;6287;50.984;7.022;2023-03-20T11:49:44;1.90;;;1.30;;
12445;SDS011;6287;50.984;7.022;2023-03-20T11:52:17;1.47;;;1.37;;
12445;SDS011;6287;50.984;7.022;2023-03-20T11:54:50;2.57;;;1.73;;
12445;SDS011;6287;50.984;7.022;2023-03-20T11:57:34;3.60;;;1.73;;
12445;SDS011;6287;50.984;7.022;2023-03-20T12:02:51;2.23;;;1.20;;
12445;SDS011;6287;50.984;7.022;2023-03-20T12:05:31;1.40;;;1.30;;
12445;SDS011;6287;50.984;7.022;2023-03-20T12:08:21;2.20;;;1.07;;
12445;SDS011;6287;50.984;7.022;2023-03-20T12:10:52;2.20;;;1.47;;
12445;SDS011;6287;50.984;7.022;2023-03-20T12:13:31;4.17;;;1.37;;
12445;SDS011;6287;50.984;7.022;2023-03-20T12:16:03;1.50;;;1.40;;
12445;SDS011;6287;50.984;7.022;2023-03-20T12:18:35;5.20;;;2.07;;
12445;SDS011;6287;50.984;7.022;2023-03-20T12:29:09;2.50;;;1.80;;
12445;SDS011;6287;50.984;7.022;2023-03-20T12:34:33;5.43;;;1.80;;
12445;SDS011;6287;50.984;7.022;2023-03-20T12:37:02;2.67;;;2.23;;
12445;SDS011;6287;50.984;7.022;2023-03-20T12:39:34;4.37;;;1.63;;
12445;SDS011;6287;50.984;7.022;2023-03-20T12:45:11;6.13;;;1.90;;
12445;SDS011;6287;50.984;7.022;2023-03-20T12:50:30;5.27;;;1.93;;
12445;SDS011;6287;50.984;7.022;2023-03-20T12:56:40;2.93;;;1.90;;
12445;SDS011;6287;50.984;7.022;2023-03-20T12:59:01;1.53;;;1.37;;
12445;SDS011;6287;50.984;7.022;2023-03-20T13:01:50;5.90;;;2.77;;
12445;SDS011;6287;50.984;7.022;2023-03-20T13:07:17;2.03;;;1.70;;
12445;SDS011;6287;50.984;7.022;2023-03-20T13:17:47;2.80;;;1.07;;
12445;SDS011;6287;50.984;7.022;2023-03-20T13:20:27;3.00;;;1.40;;
12445;SDS011;6287;50.984;7.022;2023-03-20T13:31:39;1.03;;;0.97;;
12445;SDS011;6287;50.984;7.022;2023-03-20T13:37:44;3.33;;;1.27;;
12445;SDS011;6287;50.984;7.022;2023-03-20T13:40:21;1.03;;;0.90;;
12445;SDS011;6287;50.984;7.022;2023-03-20T13:42:56;0.90;;;0.90;;
12445;SDS011;6287;50.984;7.022;2023-03-20T13:45:42;1.37;;;0.87;;
12445;SDS011;6287;50.984;7.022;2023-03-20T13:48:18;0.87;;;0.87;;
12445;SDS011;6287;50.984;7.022;2023-03-20T13:56:31;3.77;;;1.20;;
12445;SDS011;6287;50.984;7.022;2023-03-20T14:04:41;0.97;;;0.97;;
12445;SDS011;6287;50.984;7.022;2023-03-20T14:13:05;1.60;;;0.97;;
12445;SDS011;6287;50.984;7.022;2023-03-20T14:15:46;2.00;;;0.70;;
12445;SDS011;6287;50.984;7.022;2023-03-20T14:18:17;1.13;;;0.80;;
12445;SDS011;6287;50.984;7.022;2023-03-20T14:20:58;3.87;;;0.90;;
12445;SDS011;6287;50.984;7.022;2023-03-20T14:23:35;1.87;;;1.03;;
12445;SDS011;6287;50.984;7.022;2023-03-20T14:26:10;2.70;;;0.80;;
12445;SDS011;6287;50.984;7.022;2023-03-20T14:31:30;1.80;;;0.73;;
12445;SDS011;6287;50.984;7.022;2023-03-20T14:36:56;4.73;;;0.90;;
12445;SDS011;6287;50.984;7.022;2023-03-20T14:42:29;1.13;;;1.07;;
12445;SDS011;6287;50.984;7.022;2023-03-20T14:47:38;3.60;;;1.40;;
12445;SDS011;6287;50.984;7.022;2023-03-20T14:55:50;4.37;;;1.30;;
12445;SDS011;6287;50.984;7.022;2023-03-20T15:01:01;4.70;;;1.20;;
12445;SDS011;6287;50.984;7.022;2023-03-20T15:03:29;2.27;;;1.50;;
12445;SDS011;6287;50.984;7.022;2023-03-20T15:06:01;3.33;;;1.20;;
12445;SDS011;6287;50.984;7.022;2023-03-20T15:08:41;4.90;;;1.23;;
12445;SDS011;6287;50.984;7.022;2023-03-20T15:11:11;3.87;;;1.30;;
12445;SDS011;6287;50.984;7.022;2023-03-20T15:13:38;3.77;;;1.40;;
12445;SDS011;6287;50.984;7.022;2023-03-20T15:16:06;4.13;;;1.50;;
12445;SDS011;6287;50.984;7.022;2023-03-20T15:18:52;1.60;;;1.00;;
12445;SDS011;6287;50.984;7.022;2023-03-20T15:21:19;2.73;;;1.27;;
12445;SDS011;6287;50.984;7.022;2023-03-20T15:23:52;3.57;;;1.23;;
12445;SDS011;6287;50.984;7.022;2023-03-20T15:26:18;4.30;;;1.40;;
12445;SDS011;6287;50.984;7.022;2023-03-20T15:28:46;2.50;;;1.53;;
12445;SDS011;6287;50.984;7.022;2023-03-20T15:31:20;2.47;;;1.27;;
12445;SDS011;6287;50.984;7.022;2023-03-20T15:34:03;2.20;;;1.20;;
12445;SDS011;6287;50.984;7.022;2023-03-20T15:36:34;1.30;;;1.20;;
12445;SDS011;6287;50.984;7.022;2023-03-20T15:39:20;1.10;;;1.00;;
12445;SDS011;6287;50.984;7.022;2023-03-20T15:41:55;3.53;;;1.43;;
12445;SDS011;6287;50.984;7.022;2023-03-20T15:44:39;2.00;;;1.20;;
12445;SDS011;6287;50.984;7.022;2023-03-20T15:49:39;4.77;;;1.20;;
12445;SDS011;6287;50.984;7.022;2023-03-20T15:54:56;3.63;;;1.50;;
12445;SDS011;6287;50.984;7.022;2023-03-20T15:57:29;2.47;;;1.20;;
12445;SDS011;6287;50.984;7.022;2023-03-20T15:59:57;4.50;;;1.40;;
12445;SDS011;6287;50.984;7.022;2023-03-20T16:02:29;1.20;;;1.00;;
12445;SDS011;6287;50.984;7.022;2023-03-20T16:04:58;2.30;;;1.33;;
12445;SDS011;6287;50.984;7.022;2023-03-20T16:07:28;3.27;;;1.37;;
12445;SDS011;6287;50.984;7.022;2023-03-20T16:09:56;1.90;;;1.30;;
12445;SDS011;6287;50.984;7.022;2023-03-20T16:12:26;1.57;;;1.17;;
12445;SDS011;6287;50.984;7.022;2023-03-20T16:14:54;3.07;;;1.50;;
12445;SDS011;6287;50.984;7.022;2023-03-20T16:17:22;4.10;;;1.27;;
12445;SDS011;6287;50.984;7.022;2023-03-20T16:19:51;2.47;;;1.40;;
12445;SDS011;6287;50.984;7.022;2023-03-20T16:22:21;3.83;;;1.40;;
12445;SDS011;6287;50.984;7.022;2023-03-20T16:24:51;2.60;;;1.27;;
12445;SDS011;6287;50.984;7.022;2023-03-20T16:27:23;2.13;;;1.30;;
12445;SDS011;6287;50.984;7.022;2023-03-20T16:29:53;2.47;;;1.43;;
12445;SDS011;6287;50.984;7.022;2023-03-20T16:32:24;5.27;;;1.37;;
12445;SDS011;6287;50.984;7.022;2023-03-20T16:35:12;5.03;;;1.23;;
12445;SDS011;6287;50.984;7.022;2023-03-20T16:37:55;3.47;;;1.77;;
12445;SDS011;6287;50.984;7.022;2023-03-20T16:40:32;2.67;;;1.67;;
12445;SDS011;6287;50.984;7.022;2023-03-20T16:45:44;4.23;;;1.53;;
12445;SDS011;6287;50.984;7.022;2023-03-20T16:50:39;3.97;;;1.60;;
12445;SDS011;6287;50.984;7.022;2023-03-20T16:53:09;2.20;;;1.63;;
12445;SDS011;6287;50.984;7.022;2023-03-20T16:55:36;5.47;;;2.13;;
12445;SDS011;6287;50.984;7.022;2023-03-20T16:58:13;2.83;;;2.03;;
12445;SDS011;6287;50.984;7.022;2023-03-20T17:01:00;2.67;;;1.67;;
12445;SDS011;6287;50.984;7.022;2023-03-20T17:03:48;7.90;;;2.17;;
12445;SDS011;6287;50.984;7.022;2023-03-20T17:08:48;3.27;;;1.40;;
12445;SDS011;6287;50.984;7.022;2023-03-20T17:11:20;2.67;;;1.37;;
12445;SDS011;6287;50.984;7.022;2023-03-20T17:13:58;6.10;;;1.40;;
12445;SDS011;6287;50.984;7.022;2023-03-20T17:16:30;1.67;;;1.40;;
12445;SDS011;6287;50.984;7.022;2023-03-20T17:19:01;4.37;;;1.57;;
12445;SDS011;6287;50.984;7.022;2023-03-20T17:21:36;5.03;;;1.37;;
12445;SDS011;6287;50.984;7.022;2023-03-20T17:24:02;3.90;;;1.70;;
12445;SDS011;6287;50.984;7.022;2023-03-20T17:26:28;3.73;;;1.87;;
12445;SDS011;6287;50.984;7.022;2023-03-20T17:28:58;3.33;;;1.80;;
12445;SDS011;6287;50.984;7.022;2023-03-20T17:31:27;5.73;;;2.20;;
12445;SDS011;6287;50.984;7.022;2023-03-20T17:33:53;3.73;;;2.13;;
12445;SDS011;6287;50.984;7.022;2023-03-20T17:36:25;5.20;;;2.03;;
12445;SDS011;6287;50.984;7.022;2023-03-20T17:38:54;3.57;;;1.87;;
12445;SDS011;6287;50.984;7.022;2023-03-20T17:41:23;5.23;;;2.00;;
12445;SDS011;6287;50.984;7.022;2023-03-20T17:43:50;6.40;;;1.97;;
12445;SDS011;6287;50.984;7.022;2023-03-20T17:46:21;3.23;;;2.20;;
12445;SDS011;6287;50.984;7.022;2023-03-20T17:48:48;3.63;;;1.93;;
12445;SDS011;6287;50.984;7.022;2023-03-20T17:51:20;5.17;;;2.27;;
12445;SDS011;6287;50.984;7.022;2023-03-20T17:53:45;6.47;;;2.10;;
12445;SDS011;6287;50.984;7.022;2023-03-20T17:56:11;4.67;;;2.70;;
12445;SDS011;6287;50.984;7.022;2023-03-20T17:58:41;4.87;;;2.10;;
12445;SDS011;6287;50.984;7.022;2023-03-20T18:01:10;3.33;;;1.80;;
12445;SDS011;6287;50.984;7.022;2023-03-20T18:03:36;2.77;;;1.43;;
12445;SDS011;6287;50.984;7.022;2023-03-20T18:06:04;2.63;;;1.43;;
12445;SDS011;6287;50.984;7.022;2023-03-20T18:08:31;2.50;;;1.30;;